createdAt,value
2022-11-25T00:00:33.594Z,92.27
2022-11-25T00:03:00.212Z,93.13
2022-11-25T00:05:28.616Z,91.37
2022-11-25T00:07:55.130Z,86.03
2022-11-25T00:10:21.691Z,93.07
2022-11-25T00:12:48.100Z,86.20
2022-11-25T00:15:14.605Z,89.50
2022-11-25T00:17:41.027Z,90.90
2022-11-25T00:20:07.823Z,87.80
2022-11-25T00:22:34.265Z,89.20
2022-11-25T00:25:00.680Z,84.87
2022-11-25T00:27:27.150Z,89.00
2022-11-25T00:29:53.568Z,87.40
2022-11-25T00:32:20.007Z,100.87
2022-11-25T00:34:46.454Z,89.23
2022-11-25T00:37:12.907Z,93.30
2022-11-25T00:39:39.327Z,89.43
2022-11-25T00:42:24.370Z,92.60
2022-11-25T00:44:50.804Z,94.57
2022-11-25T00:47:18.034Z,91.43
2022-11-25T00:49:48.366Z,87.87
2022-11-25T00:52:15.678Z,89.10
2022-11-25T00:54:42.304Z,87.60
2022-11-25T00:57:08.742Z,90.50
2022-11-25T00:59:35.170Z,87.00
2022-11-25T01:02:01.764Z,84.47
2022-11-25T01:04:28.222Z,79.60
2022-11-25T01:06:56.894Z,80.97
2022-11-25T01:09:23.362Z,81.43
2022-11-25T01:11:50.692Z,78.80
2022-11-25T01:14:17.314Z,78.57
2022-11-25T01:16:43.820Z,80.80
2022-11-25T01:19:10.606Z,79.23
2022-11-25T01:21:37.118Z,80.33
2022-11-25T01:24:04.090Z,83.40
2022-11-25T01:26:30.749Z,79.20
2022-11-25T01:28:58.063Z,80.57
2022-11-25T01:31:25.118Z,76.40
2022-11-25T01:33:55.530Z,75.17
2022-11-25T01:36:22.033Z,78.23
2022-11-25T01:38:52.221Z,77.67
2022-11-25T01:41:18.750Z,76.87
2022-11-25T01:44:01.813Z,77.17
2022-11-25T01:46:29.161Z,79.77
2022-11-25T01:49:02.500Z,80.07
2022-11-25T01:51:28.982Z,76.77
2022-11-25T01:53:56.243Z,80.43
2022-11-25T01:56:22.667Z,79.07
2022-11-25T01:58:49.187Z,76.87
2022-11-25T02:01:15.675Z,81.10
2022-11-25T02:03:43.032Z,81.30
2022-11-25T02:06:17.517Z,83.80
2022-11-25T02:08:45.268Z,82.43
2022-11-25T02:11:11.725Z,82.47
2022-11-25T02:13:38.221Z,84.10
2022-11-25T02:16:04.803Z,81.23
2022-11-25T02:18:31.272Z,84.67
2022-11-25T02:20:57.711Z,84.17
2022-11-25T02:23:25.827Z,84.67
2022-11-25T02:25:52.509Z,84.23
2022-11-25T02:28:19.831Z,84.43
2022-11-25T02:30:46.372Z,85.03
2022-11-25T02:33:13.016Z,86.50
2022-11-25T02:35:40.334Z,83.23
2022-11-25T02:38:12.938Z,84.40
2022-11-25T02:41:05.745Z,83.83
2022-11-25T02:43:32.198Z,83.67
2022-11-25T02:46:02.682Z,81.23
2022-11-25T02:48:52.947Z,81.43
2022-11-25T02:51:16.966Z,83.33
2022-11-25T02:53:43.599Z,84.07
2022-11-25T02:56:10.533Z,82.63
2022-11-25T02:58:36.967Z,86.67
2022-11-25T03:01:03.414Z,88.07
2022-11-25T03:03:30.071Z,89.30
2022-11-25T03:05:56.498Z,83.80
2022-11-25T03:08:23.077Z,86.03
2022-11-25T03:10:49.561Z,84.47
2022-11-25T03:13:15.975Z,81.97
2022-11-25T03:15:42.400Z,82.83
2022-11-25T03:18:08.836Z,84.40
2022-11-25T03:20:35.553Z,85.97
2022-11-25T03:23:01.966Z,86.97
2022-11-25T03:25:28.412Z,79.53
2022-11-25T03:27:54.854Z,83.93
2022-11-25T03:30:22.082Z,81.17
2022-11-25T03:32:48.652Z,83.17
2022-11-25T03:35:15.182Z,79.57
2022-11-25T03:37:41.767Z,78.97
2022-11-25T03:40:08.776Z,83.50
2022-11-25T03:42:35.182Z,78.50
2022-11-25T03:45:01.888Z,84.43
2022-11-25T03:47:28.359Z,82.40
2022-11-25T03:49:54.806Z,81.37
2022-11-25T03:52:21.286Z,84.87
2022-11-25T03:54:47.734Z,79.03
2022-11-25T03:57:14.162Z,81.73
2022-11-25T03:59:40.591Z,79.40
2022-11-25T04:02:07.127Z,79.97
2022-11-25T04:04:33.814Z,77.57
2022-11-25T04:07:00.514Z,80.97
2022-11-25T04:09:26.975Z,75.10
2022-11-25T04:12:12.270Z,82.33
2022-11-25T04:14:38.750Z,80.37
2022-11-25T04:17:05.279Z,83.83
2022-11-25T04:19:31.712Z,83.43
2022-11-25T04:22:01.352Z,78.63
2022-11-25T04:24:27.771Z,79.20
2022-11-25T04:26:54.260Z,82.13
2022-11-25T04:29:20.871Z,81.70
2022-11-25T04:31:47.262Z,83.17
2022-11-25T04:34:13.710Z,79.37
2022-11-25T04:36:40.156Z,81.60
2022-11-25T04:39:06.585Z,84.77
2022-11-25T04:41:33.038Z,81.53
2022-11-25T04:43:59.826Z,76.50
2022-11-25T04:46:27.685Z,81.57
2022-11-25T04:48:54.128Z,81.90
2022-11-25T04:51:20.542Z,78.67
2022-11-25T04:53:46.973Z,80.63
2022-11-25T04:56:16.882Z,77.60
2022-11-25T04:59:02.062Z,79.03
2022-11-25T05:01:28.666Z,74.93
2022-11-25T05:03:57.712Z,77.23
2022-11-25T05:06:24.288Z,78.07
2022-11-25T05:08:50.724Z,77.37
2022-11-25T05:11:17.462Z,73.63
2022-11-25T05:13:43.854Z,76.00
2022-11-25T05:16:10.334Z,78.90
2022-11-25T05:18:36.735Z,73.83
2022-11-25T05:21:04.129Z,76.90
2022-11-25T05:23:31.056Z,75.43
2022-11-25T05:26:01.057Z,73.30
2022-11-25T05:28:27.826Z,77.90
2022-11-25T05:30:54.453Z,73.43
2022-11-25T05:33:21.062Z,74.80
2022-11-25T05:35:54.356Z,78.13
2022-11-25T05:38:20.795Z,79.43
2022-11-25T05:40:47.267Z,77.73
2022-11-25T05:43:13.819Z,81.27
2022-11-25T05:45:40.400Z,80.43
2022-11-25T05:48:06.942Z,77.60
2022-11-25T05:50:33.455Z,74.40
2022-11-25T05:52:59.917Z,82.00
2022-11-25T05:55:26.329Z,79.07
2022-11-25T05:57:53.465Z,79.00
2022-11-25T06:00:26.263Z,73.87
2022-11-25T06:02:53.344Z,72.87
2022-11-25T06:05:20.029Z,74.57
2022-11-25T06:07:46.523Z,70.77
2022-11-25T06:10:13.016Z,71.43
2022-11-25T06:12:39.454Z,74.90
2022-11-25T06:15:06.286Z,74.73
2022-11-25T06:17:32.739Z,76.37
2022-11-25T06:19:59.195Z,76.57
2022-11-25T06:22:25.634Z,74.77
2022-11-25T06:24:58.915Z,73.17
2022-11-25T06:27:31.971Z,72.87
2022-11-25T06:30:12.884Z,68.47
2022-11-25T06:32:39.368Z,70.93
2022-11-25T06:35:05.929Z,71.07
2022-11-25T06:37:32.688Z,69.40
2022-11-25T06:39:59.327Z,70.43
2022-11-25T06:42:25.784Z,68.70
2022-11-25T06:44:52.195Z,70.73
2022-11-25T06:47:18.613Z,69.87
2022-11-25T06:49:45.120Z,70.57
2022-11-25T06:52:11.598Z,69.97
2022-11-25T06:54:41.673Z,70.53
2022-11-25T06:57:08.621Z,72.10
2022-11-25T06:59:35.153Z,67.17
2022-11-25T07:02:01.677Z,68.53
2022-11-25T07:04:28.489Z,69.10
2022-11-25T07:06:54.979Z,73.47
2022-11-25T07:09:22.527Z,75.70
2022-11-25T07:11:48.996Z,81.10
2022-11-25T07:14:15.847Z,80.73
2022-11-25T07:16:44.022Z,80.27
2022-11-25T07:19:11.044Z,78.87
2022-11-25T07:21:37.573Z,79.73
2022-11-25T07:24:05.085Z,79.63
2022-11-25T07:26:32.449Z,80.33
2022-11-25T07:28:59.579Z,83.67
2022-11-25T07:31:34.101Z,83.33
2022-11-25T07:34:04.882Z,83.43
2022-11-25T07:36:31.524Z,79.47
2022-11-25T07:38:58.448Z,76.40
2022-11-25T07:41:25.629Z,71.90
2022-11-25T07:43:53.180Z,70.40
2022-11-25T07:46:25.034Z,71.10
2022-11-25T07:48:53.477Z,69.27
2022-11-25T07:51:23.995Z,64.80
2022-11-25T07:53:50.554Z,65.80
2022-11-25T07:56:17.199Z,63.37
2022-11-25T07:58:46.079Z,60.00
2022-11-25T08:01:13.001Z,59.37
2022-11-25T08:03:40.348Z,57.70
2022-11-25T08:06:07.679Z,60.20
2022-11-25T08:08:34.459Z,59.63
2022-11-25T08:11:00.955Z,60.77
2022-11-25T08:13:27.563Z,58.87
2022-11-25T08:15:54.228Z,57.10
2022-11-25T08:18:20.691Z,57.57
2022-11-25T08:20:47.153Z,53.60
2022-11-25T08:23:13.645Z,52.60
2022-11-25T08:25:47.554Z,53.30
2022-11-25T08:28:16.782Z,51.40
2022-11-25T08:30:43.246Z,52.93
2022-11-25T08:33:09.710Z,52.67
2022-11-25T08:35:38.038Z,50.50
2022-11-25T08:38:08.324Z,51.23
2022-11-25T08:40:35.077Z,50.83
2022-11-25T08:43:01.714Z,50.07
2022-11-25T08:45:28.430Z,49.40
2022-11-25T08:47:55.181Z,48.67
2022-11-25T08:50:21.809Z,47.70
2022-11-25T08:52:48.304Z,45.83
2022-11-25T08:55:14.734Z,46.70
2022-11-25T08:57:41.149Z,45.60
2022-11-25T09:00:08.250Z,47.53
2022-11-25T09:02:34.725Z,46.97
2022-11-25T09:05:01.267Z,46.07
2022-11-25T09:07:30.507Z,45.87
2022-11-25T09:09:57.347Z,46.63
2022-11-25T09:12:23.797Z,44.97
2022-11-25T09:14:50.367Z,46.50
2022-11-25T09:17:16.968Z,45.63
2022-11-25T09:19:43.405Z,45.80
2022-11-25T09:22:09.996Z,47.10
2022-11-25T09:24:36.590Z,46.90
2022-11-25T09:27:03.072Z,47.10
2022-11-25T09:29:31.006Z,44.13
2022-11-25T09:31:57.520Z,41.97
2022-11-25T09:34:24.550Z,42.60
2022-11-25T09:36:51.890Z,42.77
2022-11-25T09:39:18.476Z,42.37
2022-11-25T09:42:03.819Z,43.37
2022-11-25T09:44:52.049Z,37.30
2022-11-25T09:47:28.391Z,35.90
2022-11-25T09:50:00.808Z,35.83
2022-11-25T09:52:46.215Z,34.10
2022-11-25T09:55:16.548Z,33.07
2022-11-25T09:57:59.430Z,32.50
2022-11-25T10:00:27.272Z,32.53
2022-11-25T10:03:05.122Z,34.93
2022-11-25T10:05:33.199Z,34.20
2022-11-25T10:08:10.323Z,35.60
2022-11-25T10:11:00.244Z,34.53
2022-11-25T10:13:34.430Z,34.63
2022-11-25T10:16:01.887Z,35.90
2022-11-25T10:18:42.309Z,34.00
2022-11-25T10:21:09.641Z,35.00
2022-11-25T10:23:36.148Z,35.03
2022-11-25T10:26:12.893Z,31.90
2022-11-25T10:28:39.315Z,31.33
2022-11-25T10:31:11.934Z,31.33
2022-11-25T10:33:45.464Z,31.67
2022-11-25T10:36:30.831Z,32.37
2022-11-25T10:39:12.649Z,31.60
2022-11-25T10:41:59.591Z,31.70
2022-11-25T10:44:26.818Z,31.30
2022-11-25T10:47:14.778Z,31.97
2022-11-25T10:50:02.093Z,32.67
2022-11-25T10:52:30.016Z,32.50
2022-11-25T10:55:08.997Z,34.07
2022-11-25T10:57:35.434Z,33.43
2022-11-25T11:00:02.051Z,31.60
2022-11-25T11:02:34.739Z,32.97
2022-11-25T11:05:04.285Z,29.23
2022-11-25T11:07:33.356Z,29.23
2022-11-25T11:10:15.390Z,29.27
2022-11-25T11:12:53.674Z,28.43
2022-11-25T11:15:30.161Z,29.27
2022-11-25T11:17:57.622Z,27.90
2022-11-25T11:20:28.097Z,27.83
2022-11-25T11:22:56.183Z,28.67
2022-11-25T11:25:23.568Z,29.20
2022-11-25T11:27:50.029Z,28.47
2022-11-25T11:30:17.344Z,28.57
2022-11-25T11:32:44.703Z,29.07
2022-11-25T11:35:17.033Z,29.30
2022-11-25T11:37:44.623Z,29.47
2022-11-25T11:40:14.401Z,30.17
2022-11-25T11:42:48.700Z,31.20
2022-11-25T11:45:24.225Z,30.17
2022-11-25T11:47:56.706Z,30.67
2022-11-25T11:50:27.517Z,30.37
2022-11-25T11:52:58.712Z,32.00
2022-11-25T11:55:34.959Z,32.00
2022-11-25T11:58:04.955Z,32.07
2022-11-25T12:00:33.411Z,31.57
2022-11-25T12:03:01.557Z,32.10
2022-11-25T12:05:28.781Z,30.87
2022-11-25T12:08:02.017Z,32.23
2022-11-25T12:10:33.031Z,31.70
2022-11-25T12:13:05.649Z,31.13
2022-11-25T12:15:32.085Z,31.83
2022-11-25T12:18:00.027Z,33.63
2022-11-25T12:20:37.779Z,35.43
2022-11-25T12:23:06.402Z,35.70
2022-11-25T12:25:35.567Z,34.97
2022-11-25T12:28:07.290Z,34.83
2022-11-25T12:30:49.013Z,34.93
2022-11-25T12:33:18.345Z,37.50
2022-11-25T12:35:51.060Z,34.57
2022-11-25T12:38:20.545Z,33.83
2022-11-25T12:40:48.417Z,31.13
2022-11-25T12:43:15.466Z,31.10
2022-11-25T12:45:41.948Z,32.57
2022-11-25T12:48:09.295Z,31.27
2022-11-25T12:50:43.085Z,34.10
2022-11-25T12:53:12.628Z,33.67
2022-11-25T12:55:39.687Z,32.97
2022-11-25T12:58:15.417Z,32.17
2022-11-25T13:00:57.409Z,31.87
2022-11-25T13:03:42.574Z,30.93
2022-11-25T13:06:27.671Z,31.97
2022-11-25T13:08:57.163Z,30.37
2022-11-25T13:11:37.017Z,30.50
2022-11-25T13:14:23.692Z,31.73
2022-11-25T13:16:50.812Z,30.87
2022-11-25T13:19:17.833Z,30.27
2022-11-25T13:22:00.489Z,30.13
2022-11-25T13:24:47.245Z,29.37
2022-11-25T13:27:40.687Z,28.43
2022-11-25T13:30:27.186Z,28.53
2022-11-25T13:32:53.689Z,28.93
2022-11-25T13:35:24.624Z,29.03
2022-11-25T13:37:51.076Z,27.87
2022-11-25T13:40:21.057Z,29.83
2022-11-25T13:42:47.566Z,30.10
2022-11-25T13:45:26.256Z,29.83
2022-11-25T13:47:52.936Z,28.53
2022-11-25T13:50:22.253Z,29.07
2022-11-25T13:52:49.864Z,32.50
2022-11-25T13:55:16.365Z,33.13
2022-11-25T13:57:44.207Z,34.40
2022-11-25T14:00:19.779Z,33.03
2022-11-25T14:02:47.225Z,33.73
2022-11-25T14:05:26.100Z,30.90
2022-11-25T14:08:11.579Z,32.80
2022-11-25T14:10:38.048Z,28.40
2022-11-25T14:13:23.269Z,30.43
2022-11-25T14:15:49.725Z,29.67
2022-11-25T14:18:44.756Z,32.30
2022-11-25T14:21:27.446Z,31.17
2022-11-25T14:24:13.447Z,31.53
2022-11-25T14:26:50.150Z,32.13
2022-11-25T14:29:32.393Z,32.13
2022-11-25T14:32:17.665Z,29.27
2022-11-25T14:34:45.646Z,31.30
2022-11-25T14:37:16.996Z,34.87
2022-11-25T14:39:45.581Z,32.50
2022-11-25T14:42:14.231Z,32.57
2022-11-25T14:44:44.637Z,33.80
2022-11-25T14:47:11.141Z,37.83
2022-11-25T14:50:18.662Z,36.13
2022-11-25T14:52:44.198Z,37.37
2022-11-25T14:55:10.689Z,36.93
2022-11-25T14:57:38.085Z,35.37
2022-11-25T15:00:08.799Z,34.83
2022-11-25T15:02:35.901Z,35.67
2022-11-25T15:05:08.511Z,35.53
2022-11-25T15:07:35.112Z,36.60
2022-11-25T15:10:01.665Z,36.43
2022-11-25T15:12:29.510Z,40.63
2022-11-25T15:14:55.967Z,40.00
2022-11-25T15:17:26.924Z,40.83
2022-11-25T15:19:53.724Z,45.30
2022-11-25T15:22:23.593Z,44.73
2022-11-25T15:24:55.066Z,40.43
2022-11-25T15:27:25.136Z,43.30
2022-11-25T15:29:51.657Z,45.47
2022-11-25T15:32:18.803Z,43.87
2022-11-25T15:34:45.676Z,42.37
2022-11-25T15:37:12.080Z,39.67
2022-11-25T15:39:39.094Z,40.30
2022-11-25T15:42:24.711Z,39.33
2022-11-25T15:44:52.938Z,38.73
2022-11-25T15:47:21.986Z,41.73
2022-11-25T15:50:21.374Z,38.73
2022-11-25T15:52:48.816Z,42.90
2022-11-25T15:55:27.727Z,38.67
2022-11-25T15:57:54.284Z,40.27
2022-11-25T16:00:21.666Z,41.87
2022-11-25T16:02:50.332Z,44.57
2022-11-25T16:05:18.409Z,45.17
2022-11-25T16:07:51.159Z,44.77
2022-11-25T16:10:17.819Z,47.30
2022-11-25T16:12:44.292Z,64.47
2022-11-25T16:15:17.336Z,58.63
2022-11-25T16:17:43.848Z,54.00
2022-11-25T16:20:19.529Z,49.43
2022-11-25T16:22:46.252Z,50.37
2022-11-25T16:25:12.967Z,50.53
2022-11-25T16:27:39.512Z,51.07
2022-11-25T16:30:05.977Z,53.87
2022-11-25T16:32:32.713Z,58.57
2022-11-25T16:35:15.477Z,64.60
2022-11-25T16:37:47.169Z,69.80
2022-11-25T16:40:15.852Z,66.13
2022-11-25T16:42:42.504Z,59.87
2022-11-25T16:45:17.784Z,58.53
2022-11-25T16:47:44.434Z,60.27
2022-11-25T16:50:14.224Z,62.27
2022-11-25T16:52:40.885Z,71.97
2022-11-25T16:55:07.492Z,67.60
2022-11-25T16:57:33.961Z,67.27
2022-11-25T17:00:03.314Z,67.53
2022-11-25T17:02:30.045Z,65.17
2022-11-25T17:04:56.714Z,62.43
2022-11-25T17:07:38.959Z,65.57
2022-11-25T17:10:05.817Z,63.77
2022-11-25T17:12:32.715Z,61.20
2022-11-25T17:15:00.012Z,60.07
2022-11-25T17:17:27.054Z,61.87
2022-11-25T17:19:53.566Z,69.30
2022-11-25T17:22:20.933Z,85.47
2022-11-25T17:24:47.532Z,88.07
2022-11-25T17:27:34.308Z,84.30
2022-11-25T17:30:01.602Z,79.03
2022-11-25T17:32:28.318Z,82.93
2022-11-25T17:34:54.974Z,74.07
2022-11-25T17:37:23.211Z,76.10
2022-11-25T17:39:50.194Z,65.90
2022-11-25T17:42:17.391Z,70.67
2022-11-25T17:44:45.276Z,80.63
2022-11-25T17:47:14.885Z,77.70
2022-11-25T17:49:41.354Z,74.37
2022-11-25T17:52:09.021Z,76.07
2022-11-25T17:54:36.040Z,66.63
2022-11-25T17:57:03.123Z,60.00
2022-11-25T17:59:30.187Z,53.33
2022-11-25T18:01:58.951Z,54.10
2022-11-25T18:04:26.295Z,53.33
2022-11-25T18:06:52.744Z,52.37
2022-11-25T18:09:19.315Z,48.10
2022-11-25T18:11:49.817Z,54.53
2022-11-25T18:14:22.464Z,51.70
2022-11-25T18:16:49.084Z,52.90
2022-11-25T18:19:15.542Z,53.07
2022-11-25T18:21:42.004Z,54.73
2022-11-25T18:24:08.486Z,50.63
2022-11-25T18:26:45.164Z,48.77
2022-11-25T18:29:20.139Z,48.57
2022-11-25T18:31:47.312Z,49.13
2022-11-25T18:34:14.529Z,49.43
2022-11-25T18:36:41.060Z,50.83
2022-11-25T18:39:07.570Z,49.97
2022-11-25T18:41:34.267Z,48.97
2022-11-25T18:44:00.949Z,48.73
2022-11-25T18:46:35.296Z,47.97
2022-11-25T18:49:01.851Z,52.00
2022-11-25T18:51:28.714Z,54.10
2022-11-25T18:53:55.212Z,52.63
2022-11-25T18:56:21.668Z,53.87
2022-11-25T18:58:49.150Z,54.73
2022-11-25T19:01:15.875Z,57.37
2022-11-25T19:03:42.394Z,57.67
2022-11-25T19:06:14.643Z,62.83
2022-11-25T19:08:41.915Z,60.20
2022-11-25T19:11:26.312Z,65.03
2022-11-25T19:13:53.523Z,58.23
2022-11-25T19:16:23.869Z,59.43
2022-11-25T19:18:50.473Z,55.97
2022-11-25T19:21:17.536Z,58.80
2022-11-25T19:23:44.081Z,56.00
2022-11-25T19:26:43.112Z,55.93
2022-11-25T19:29:11.737Z,57.40
2022-11-25T19:31:38.484Z,54.37
2022-11-25T19:34:05.068Z,57.37
2022-11-25T19:36:31.908Z,51.63
2022-11-25T19:38:58.326Z,51.73
2022-11-25T19:41:24.738Z,51.73
2022-11-25T19:43:51.188Z,50.30
2022-11-25T19:46:29.131Z,53.00
2022-11-25T19:48:57.066Z,54.07
2022-11-25T19:51:23.840Z,50.40
2022-11-25T19:53:50.299Z,51.23
2022-11-25T19:56:22.664Z,53.53
2022-11-25T19:58:49.102Z,51.27
2022-11-25T20:01:15.644Z,51.77
2022-11-25T20:03:47.775Z,51.50
2022-11-25T20:06:15.392Z,52.37
2022-11-25T20:08:41.892Z,52.50
2022-11-25T20:11:09.320Z,49.13
2022-11-25T20:13:35.781Z,48.37
2022-11-25T20:16:02.545Z,48.30
2022-11-25T20:18:29.228Z,50.13
2022-11-25T20:21:00.283Z,50.37
2022-11-25T20:23:32.288Z,50.33
2022-11-25T20:25:59.634Z,51.83
2022-11-25T20:28:27.133Z,50.17
2022-11-25T20:30:54.065Z,38.63
2022-11-25T20:33:24.300Z,35.67
2022-11-25T20:35:51.757Z,36.43
2022-11-25T20:38:18.945Z,33.43
2022-11-25T20:40:45.906Z,32.30
2022-11-25T20:43:32.727Z,32.80
2022-11-25T20:45:59.631Z,33.50
2022-11-25T20:48:26.317Z,36.57
2022-11-25T20:50:53.404Z,39.37
2022-11-25T20:53:20.336Z,39.43
2022-11-25T20:55:47.016Z,38.73
2022-11-25T20:58:23.653Z,37.23
2022-11-25T21:00:54.157Z,43.53
2022-11-25T21:03:23.622Z,44.07
2022-11-25T21:05:50.301Z,46.53
2022-11-25T21:08:18.964Z,40.57
2022-11-25T21:10:46.168Z,44.40
2022-11-25T21:13:16.519Z,47.17
2022-11-25T21:15:43.125Z,58.80
2022-11-25T21:18:09.565Z,62.50
2022-11-25T21:20:36.083Z,72.57
2022-11-25T21:23:05.683Z,70.50
2022-11-25T21:25:32.317Z,68.07
2022-11-25T21:27:58.735Z,71.33
2022-11-25T21:30:30.844Z,67.97
2022-11-25T21:32:58.160Z,84.60
2022-11-25T21:35:25.305Z,83.17
2022-11-25T21:37:51.711Z,78.27
2022-11-25T21:40:28.485Z,89.63
2022-11-25T21:42:55.278Z,86.27
2022-11-25T21:45:21.792Z,85.17
2022-11-25T21:47:48.411Z,96.43
2022-11-25T21:50:15.399Z,84.70
2022-11-25T21:52:41.884Z,92.10
2022-11-25T21:55:09.410Z,88.20
2022-11-25T21:57:35.847Z,88.50
2022-11-25T22:00:02.285Z,91.17
2022-11-25T22:02:28.815Z,90.03
2022-11-25T22:04:55.300Z,91.20
2022-11-25T22:07:25.061Z,81.97
2022-11-25T22:09:54.232Z,85.20
2022-11-25T22:12:23.821Z,80.27
2022-11-25T22:14:50.501Z,85.87
2022-11-25T22:17:17.001Z,74.17
2022-11-25T22:19:43.454Z,76.17
2022-11-25T22:22:13.503Z,70.17
2022-11-25T22:24:40.144Z,63.87
2022-11-25T22:27:07.388Z,64.73
2022-11-25T22:29:34.467Z,59.20
2022-11-25T22:32:00.914Z,59.37
2022-11-25T22:34:27.451Z,57.47
2022-11-25T22:36:53.855Z,55.50
2022-11-25T22:39:24.194Z,56.67
2022-11-25T22:41:54.621Z,52.93
2022-11-25T22:44:25.252Z,56.90
2022-11-25T22:46:51.725Z,55.47
2022-11-25T22:49:22.220Z,58.67
2022-11-25T22:51:48.665Z,56.63
2022-11-25T22:54:15.097Z,58.67
2022-11-25T22:56:41.545Z,57.37
2022-11-25T22:59:08.133Z,55.47
2022-11-25T23:01:34.633Z,57.10
2022-11-25T23:04:01.171Z,59.10
2022-11-25T23:06:27.594Z,58.73
2022-11-25T23:08:54.137Z,61.90
2022-11-25T23:11:20.852Z,60.63
2022-11-25T23:13:48.898Z,65.90
2022-11-25T23:16:15.447Z,64.97
2022-11-25T23:18:43.318Z,69.17
2022-11-25T23:21:29.229Z,66.97
2022-11-25T23:23:56.312Z,66.47
2022-11-25T23:26:22.851Z,66.17
2022-11-25T23:28:49.470Z,67.17
2022-11-25T23:31:16.262Z,68.93
2022-11-25T23:33:49.597Z,63.53
2022-11-25T23:36:22.187Z,63.00
2022-11-25T23:38:52.513Z,65.33
2022-11-25T23:41:23.011Z,65.93
2022-11-25T23:43:49.662Z,65.43
2022-11-25T23:46:16.560Z,61.83
2022-11-25T23:48:43.397Z,63.40
2022-11-25T23:51:09.897Z,61.23
2022-11-25T23:53:37.469Z,62.67
2022-11-25T23:56:03.998Z,67.20
2022-11-25T23:58:30.487Z,64.43
